createdAt,value
2017-05-17T08:09:27.519Z,1011.84
2017-05-17T08:10:31.107Z,1011.93
2017-05-17T08:11:28.725Z,1011.97
2017-05-17T08:12:26.112Z,1011.93
2017-05-17T08:13:23.510Z,1011.91
2017-05-17T08:14:20.918Z,1011.89
2017-05-17T08:15:18.304Z,1011.85
2017-05-17T08:16:15.674Z,1011.89
2017-05-17T08:17:13.034Z,1011.92
2017-05-17T08:18:10.364Z,1011.84
2017-05-17T08:19:07.720Z,1011.92
2017-05-17T08:20:05.075Z,1011.83
2017-05-17T08:21:02.461Z,1011.89
2017-05-17T08:21:59.806Z,1011.82
2017-05-17T08:22:57.187Z,1011.90
2017-05-17T08:23:54.537Z,1011.89
2017-05-17T08:24:51.928Z,1011.84
2017-05-17T08:25:49.327Z,1011.84
2017-05-17T08:26:46.690Z,1011.80
2017-05-17T08:27:44.063Z,1011.83
2017-05-17T08:28:41.411Z,1011.77
2017-05-17T08:29:38.785Z,1011.76
2017-05-17T08:30:36.159Z,1011.77
2017-05-17T08:31:33.561Z,1011.74
2017-05-17T08:32:30.933Z,1011.75
2017-05-17T08:33:28.301Z,1011.78
2017-05-17T08:34:25.669Z,1011.66
2017-05-17T08:35:23.052Z,1011.70
2017-05-17T08:36:20.437Z,1011.64
2017-05-17T08:37:17.809Z,1011.67
2017-05-17T08:38:15.212Z,1011.62
2017-05-17T08:39:12.598Z,1011.66
2017-05-17T08:40:09.980Z,1011.62
2017-05-17T08:41:07.345Z,1011.64
2017-05-17T08:42:04.683Z,1011.59
2017-05-17T08:43:02.042Z,1011.53
2017-05-17T08:43:59.403Z,1011.60
2017-05-17T08:44:56.772Z,1011.62
2017-05-17T08:45:54.123Z,1011.49
2017-05-17T08:46:51.470Z,1011.60
2017-05-17T08:47:48.801Z,1011.59
2017-05-17T08:48:46.173Z,1011.53
2017-05-17T08:49:43.517Z,1011.48
2017-05-17T08:50:40.869Z,1011.49
2017-05-17T08:51:38.208Z,1011.53
2017-05-17T08:52:35.579Z,1011.49
2017-05-17T08:53:32.946Z,1011.50
2017-05-17T08:54:30.323Z,1011.49
2017-05-17T08:55:27.726Z,1011.38
2017-05-17T08:56:25.095Z,1011.44
2017-05-17T08:57:22.432Z,1011.40
2017-05-17T08:58:19.800Z,1011.38
2017-05-17T08:59:17.186Z,1011.36
2017-05-17T09:00:14.574Z,1011.38
2017-05-17T09:01:11.952Z,1011.42
2017-05-17T09:02:09.287Z,1011.36
2017-05-17T09:03:06.659Z,1011.28
2017-05-17T09:04:04.062Z,1011.33
2017-05-17T09:05:01.469Z,1011.31
2017-05-17T09:05:58.867Z,1011.21
2017-05-17T09:06:56.226Z,1011.30
2017-05-17T09:07:53.596Z,1011.20
2017-05-17T09:08:50.982Z,1011.27
2017-05-17T09:09:48.360Z,1011.23
2017-05-17T09:10:45.755Z,1011.20
2017-05-17T09:11:43.130Z,1011.10
2017-05-17T09:12:40.529Z,1011.13
2017-05-17T09:13:37.890Z,1011.13
2017-05-17T09:14:35.221Z,1011.10
2017-05-17T09:15:32.592Z,1011.10
2017-05-17T09:16:29.947Z,1011.04
2017-05-17T09:17:27.305Z,1011.09
2017-05-17T09:18:24.681Z,1011.05
2017-05-17T09:19:22.040Z,1011.06
2017-05-17T09:20:19.356Z,1011.05
2017-05-17T09:21:16.727Z,1011.04
2017-05-17T09:22:14.085Z,1010.93
2017-05-17T09:23:11.405Z,1010.97
2017-05-17T09:24:08.793Z,1010.91
2017-05-17T09:25:06.146Z,1010.88
2017-05-17T09:26:03.499Z,1010.88
2017-05-17T09:27:00.867Z,1010.86
2017-05-17T09:27:58.213Z,1010.83
2017-05-17T09:28:55.587Z,1010.77
2017-05-17T09:29:52.951Z,1010.77
2017-05-17T09:30:50.330Z,1010.86
2017-05-17T09:31:47.719Z,1010.73
2017-05-17T09:32:45.096Z,1010.74
2017-05-17T09:33:42.497Z,1010.72
2017-05-17T09:34:39.882Z,1010.69
2017-05-17T09:35:37.248Z,1010.81
2017-05-17T09:36:34.633Z,1010.72
2017-05-17T09:37:31.989Z,1010.74
2017-05-17T09:38:29.348Z,1010.70
2017-05-17T09:39:26.694Z,1010.76
2017-05-17T09:40:24.054Z,1010.71
2017-05-17T09:41:21.428Z,1010.72
2017-05-17T09:42:18.857Z,1010.62
2017-05-17T09:43:16.230Z,1010.73
2017-05-17T09:44:13.606Z,1010.64
2017-05-17T09:45:10.942Z,1010.51
2017-05-17T09:46:08.319Z,1010.58
2017-05-17T09:47:05.719Z,1010.59
2017-05-17T09:48:03.095Z,1010.53
2017-05-17T09:49:00.456Z,1010.59
2017-05-17T09:49:57.820Z,1010.63
2017-05-17T09:50:55.732Z,1010.53
2017-05-17T09:51:53.088Z,1010.57
2017-05-17T09:52:50.488Z,1010.51
2017-05-17T09:53:47.839Z,1010.42
2017-05-17T09:54:45.208Z,1010.53
2017-05-17T09:55:42.583Z,1010.38
2017-05-17T09:56:40.071Z,1010.37
2017-05-17T09:57:37.451Z,1010.41
2017-05-17T09:58:34.842Z,1010.52
2017-05-17T09:59:32.223Z,1010.38
2017-05-17T10:00:29.597Z,1010.33
2017-05-17T10:01:26.973Z,1010.35
2017-05-17T10:02:24.371Z,1010.30
2017-05-17T10:03:21.747Z,1010.30
2017-05-17T10:04:19.122Z,1010.38
2017-05-17T10:05:16.470Z,1010.28
2017-05-17T10:06:13.852Z,1010.22
2017-05-17T10:07:11.228Z,1010.29
2017-05-17T10:08:08.581Z,1010.24
2017-05-17T10:09:05.961Z,1010.23
2017-05-17T10:10:03.358Z,1010.12
2017-05-17T10:11:00.734Z,1010.19
2017-05-17T10:11:58.115Z,1010.11
2017-05-17T10:12:55.489Z,1010.07
2017-05-17T10:13:52.852Z,1010.12
2017-05-17T10:14:50.212Z,1010.26
2017-05-17T10:15:47.624Z,1010.16
2017-05-17T10:16:44.956Z,1010.16
2017-05-17T10:17:42.279Z,1010.12
2017-05-17T10:18:39.664Z,1010.03
2017-05-17T10:19:37.023Z,1010.05
2017-05-17T10:20:34.397Z,1010.11
2017-05-17T10:21:31.790Z,1009.99
2017-05-17T10:22:29.140Z,1010.05
2017-05-17T10:23:26.469Z,1009.99
2017-05-17T10:24:23.812Z,1009.92
2017-05-17T10:25:21.159Z,1009.94
2017-05-17T10:26:18.488Z,1009.97
2017-05-17T10:27:15.895Z,1009.85
2017-05-17T10:28:13.252Z,1009.83
2017-05-17T10:29:10.602Z,1009.80
2017-05-17T10:30:07.979Z,1009.76
2017-05-17T10:31:05.337Z,1009.80
2017-05-17T10:32:02.722Z,1009.86
2017-05-17T10:33:00.128Z,1009.80
2017-05-17T10:33:57.504Z,1009.83
2017-05-17T10:34:54.864Z,1009.81
2017-05-17T10:35:52.219Z,1009.84
2017-05-17T10:36:49.600Z,1009.76
2017-05-17T10:37:46.981Z,1009.79
2017-05-17T10:38:44.486Z,1009.71
2017-05-17T10:39:41.834Z,1009.71
2017-05-17T10:40:39.218Z,1009.71
2017-05-17T10:41:36.591Z,1009.64
2017-05-17T10:42:33.984Z,1009.71
2017-05-17T10:43:31.346Z,1009.57
2017-05-17T10:44:28.744Z,1009.64
2017-05-17T10:45:26.119Z,1009.63
2017-05-17T10:46:23.460Z,1009.63
2017-05-17T10:47:20.840Z,1009.66
2017-05-17T10:48:18.217Z,1009.60
2017-05-17T10:49:15.613Z,1009.51
2017-05-17T10:50:13.024Z,1009.46
2017-05-17T10:51:10.414Z,1009.47
2017-05-17T10:52:07.762Z,1009.47
2017-05-17T10:53:05.144Z,1009.34
2017-05-17T10:54:02.487Z,1009.49
2017-05-17T10:54:59.884Z,1009.43
2017-05-17T10:55:57.275Z,1009.40
2017-05-17T10:56:54.672Z,1009.40
2017-05-17T10:57:52.057Z,1009.41
2017-05-17T10:58:49.425Z,1009.40
2017-05-17T10:59:46.821Z,1009.31
2017-05-17T11:00:44.219Z,1009.36
2017-05-17T11:01:41.635Z,1009.37
2017-05-17T11:02:39.048Z,1009.40
2017-05-17T11:03:36.391Z,1009.39
2017-05-17T11:04:33.804Z,1009.40
2017-05-17T11:05:31.180Z,1009.39
2017-05-17T11:06:28.540Z,1009.30
2017-05-17T11:07:25.887Z,1009.30
2017-05-17T11:08:23.268Z,1009.26
2017-05-17T11:09:20.643Z,1009.23
2017-05-17T11:10:18.012Z,1009.21
2017-05-17T11:11:15.377Z,1009.23
2017-05-17T11:12:12.730Z,1009.21
2017-05-17T11:13:10.120Z,1009.14
2017-05-17T11:14:07.536Z,1009.27
2017-05-17T11:15:04.911Z,1009.22
2017-05-17T11:16:02.292Z,1009.10
2017-05-17T11:16:59.660Z,1009.13
2017-05-17T11:17:57.037Z,1009.18
2017-05-17T11:18:54.438Z,1009.11
2017-05-17T11:19:51.799Z,1009.12
2017-05-17T11:20:49.149Z,1009.11
2017-05-17T11:21:46.519Z,1009.07
2017-05-17T11:22:43.882Z,1009.09
2017-05-17T11:23:41.248Z,1009.05
2017-05-17T11:24:38.639Z,1009.02
2017-05-17T11:25:36.002Z,1009.06
2017-05-17T11:26:33.361Z,1009.11
2017-05-17T11:27:30.727Z,1009.01
2017-05-17T11:28:28.099Z,1009.11
2017-05-17T11:29:25.463Z,1009.01
2017-05-17T11:30:22.841Z,1009.07
2017-05-17T11:31:20.207Z,1009.02
2017-05-17T11:32:17.561Z,1009.05
2017-05-17T11:33:14.938Z,1008.87
2017-05-17T11:34:12.286Z,1008.88
2017-05-17T11:35:09.660Z,1008.81
2017-05-17T11:36:07.057Z,1008.77
2017-05-17T11:37:04.403Z,1008.83
2017-05-17T11:38:01.800Z,1008.76
2017-05-17T11:38:59.130Z,1008.74
2017-05-17T11:39:56.484Z,1008.72
2017-05-17T11:40:53.850Z,1008.71
2017-05-17T11:41:51.243Z,1008.81
2017-05-17T11:42:48.622Z,1008.70
2017-05-17T11:43:45.988Z,1008.69
2017-05-17T11:44:43.367Z,1008.71
2017-05-17T11:45:40.708Z,1008.67
2017-05-17T11:46:38.063Z,1008.67
2017-05-17T11:47:35.491Z,1008.60
2017-05-17T11:48:32.870Z,1008.56
2017-05-17T11:49:30.249Z,1008.61
2017-05-17T11:50:27.590Z,1008.52
2017-05-17T11:51:24.945Z,1008.75
2017-05-17T11:52:22.314Z,1008.72
2017-05-17T11:53:19.710Z,1008.64
2017-05-17T11:54:17.070Z,1008.56
2017-05-17T11:55:14.438Z,1008.54
2017-05-17T11:56:11.787Z,1008.50
2017-05-17T11:57:09.298Z,1008.49
2017-05-17T11:58:06.659Z,1008.61
2017-05-17T11:59:04.055Z,1008.59
2017-05-17T12:00:01.380Z,1008.51
2017-05-17T12:00:58.723Z,1008.55
2017-05-17T12:01:56.065Z,1008.50
2017-05-17T12:02:53.438Z,1008.43
2017-05-17T12:03:50.781Z,1008.55
2017-05-17T12:04:48.165Z,1008.50
2017-05-17T12:05:45.507Z,1008.46
2017-05-17T12:06:42.858Z,1008.42
2017-05-17T12:07:40.230Z,1008.33
2017-05-17T12:08:37.611Z,1008.40
2017-05-17T12:09:34.973Z,1008.35
2017-05-17T12:10:32.358Z,1008.29
2017-05-17T12:11:29.729Z,1008.33
2017-05-17T12:12:27.089Z,1008.35
2017-05-17T12:13:24.461Z,1008.31
2017-05-17T12:14:21.805Z,1008.32
2017-05-17T12:15:19.174Z,1008.24
2017-05-17T12:16:16.579Z,1008.27
2017-05-17T12:17:13.953Z,1008.34
2017-05-17T12:18:11.327Z,1008.30
2017-05-17T12:19:08.708Z,1008.36
2017-05-17T12:20:06.094Z,1008.25
2017-05-17T12:21:03.475Z,1008.42
2017-05-17T12:22:00.889Z,1008.18
2017-05-17T12:22:58.263Z,1008.31
2017-05-17T12:23:55.648Z,1008.22
2017-05-17T12:24:53.018Z,1008.22
2017-05-17T12:25:50.349Z,1008.11
2017-05-17T12:26:47.711Z,1008.22
2017-05-17T12:27:45.091Z,1008.13
2017-05-17T12:28:42.462Z,1008.03
2017-05-17T12:29:39.812Z,1008.09
2017-05-17T12:30:37.159Z,1007.99
2017-05-17T12:31:34.486Z,1008.04
2017-05-17T12:32:31.826Z,1008.01
2017-05-17T12:33:29.211Z,1007.99
2017-05-17T12:34:26.542Z,1008.03
2017-05-17T12:35:23.865Z,1008.09
2017-05-17T12:36:21.236Z,1008.00
2017-05-17T12:37:18.647Z,1008.00
2017-05-17T12:38:16.022Z,1008.17
2017-05-17T12:39:13.416Z,1008.02
2017-05-17T12:40:10.784Z,1008.02
2017-05-17T12:41:08.163Z,1008.04
2017-05-17T12:42:05.539Z,1008.05
2017-05-17T12:43:02.923Z,1007.95
2017-05-17T12:44:00.349Z,1007.97
2017-05-17T12:44:57.736Z,1007.91
2017-05-17T12:45:55.085Z,1007.94
2017-05-17T12:46:52.462Z,1007.89
2017-05-17T12:47:49.798Z,1007.92
2017-05-17T12:48:47.174Z,1007.80
2017-05-17T12:49:44.548Z,1007.79
2017-05-17T12:50:41.953Z,1007.78
2017-05-17T12:51:39.324Z,1007.73
2017-05-17T12:52:36.721Z,1007.80
2017-05-17T12:53:34.091Z,1007.76
2017-05-17T12:54:31.451Z,1007.69
2017-05-17T12:55:28.839Z,1007.68
2017-05-17T12:56:26.232Z,1007.69
2017-05-17T12:57:23.570Z,1007.63
2017-05-17T12:58:20.904Z,1007.59
2017-05-17T12:59:18.240Z,1007.60
2017-05-17T13:00:15.557Z,1007.61
2017-05-17T13:01:12.897Z,1007.54
2017-05-17T13:02:10.249Z,1007.51
2017-05-17T13:03:07.592Z,1007.49
2017-05-17T13:04:11.907Z,1007.46
2017-05-17T13:05:09.257Z,1007.53
2017-05-17T13:06:06.618Z,1007.50
2017-05-17T13:07:03.977Z,1007.40
2017-05-17T13:08:01.376Z,1007.49
2017-05-17T13:08:58.724Z,1007.42
2017-05-17T13:09:56.069Z,1007.41
2017-05-17T13:10:53.422Z,1007.45
2017-05-17T13:11:50.787Z,1007.34
2017-05-17T13:12:48.158Z,1007.32
2017-05-17T13:13:45.505Z,1007.36
2017-05-17T13:14:42.881Z,1007.33
2017-05-17T13:15:40.268Z,1007.24
2017-05-17T13:16:37.850Z,1007.32
2017-05-17T13:17:35.203Z,1007.27
2017-05-17T13:18:32.567Z,1007.23
2017-05-17T13:19:29.966Z,1007.33
2017-05-17T13:20:27.337Z,1007.32
2017-05-17T13:21:24.708Z,1007.28
2017-05-17T13:22:22.079Z,1007.30
2017-05-17T13:23:19.446Z,1007.34
2017-05-17T13:24:16.837Z,1007.26
2017-05-17T13:25:14.243Z,1007.29
2017-05-17T13:26:11.609Z,1007.19
2017-05-17T13:27:08.995Z,1007.23
2017-05-17T13:28:06.408Z,1007.13
2017-05-17T13:29:03.784Z,1007.14
2017-05-17T13:30:01.119Z,1007.09
2017-05-17T13:30:58.521Z,1007.18
2017-05-17T13:31:55.883Z,1007.24
2017-05-17T13:32:53.244Z,1007.23
2017-05-17T13:33:50.607Z,1007.16
2017-05-17T14:41:55.426Z,1006.03
2017-05-17T14:44:00.116Z,1006.06
2017-05-17T14:44:58.792Z,1006.11
2017-05-17T14:45:57.265Z,1005.95
2017-05-17T14:46:55.890Z,1005.92
2017-05-17T14:47:54.720Z,1005.95
2017-05-17T14:48:53.227Z,1005.98
2017-05-17T14:49:51.680Z,1006.01
2017-05-17T14:50:50.271Z,1005.91
2017-05-17T14:51:48.759Z,1005.88
2017-05-17T14:52:47.640Z,1005.93
2017-05-17T14:53:46.487Z,1005.92
2017-05-17T14:54:45.198Z,1005.92
2017-05-17T14:55:44.148Z,1005.81
2017-05-17T14:56:42.703Z,1005.80
2017-05-17T14:57:41.584Z,1005.73
2017-05-17T14:58:40.279Z,1005.84
2017-05-17T14:59:38.855Z,1005.86
2017-05-17T15:00:37.426Z,1005.74
2017-05-17T15:01:36.511Z,1005.72
2017-05-17T15:02:34.901Z,1005.77
2017-05-17T15:03:33.762Z,1005.67
2017-05-17T15:04:32.234Z,1005.69
2017-05-17T15:05:30.739Z,1005.67
2017-05-17T15:06:29.569Z,1005.67
2017-05-17T15:07:27.287Z,1005.68
2017-05-17T15:08:24.912Z,1005.59
2017-05-17T15:09:22.315Z,1005.51
2017-05-17T15:10:19.697Z,1005.55
2017-05-17T15:11:17.702Z,1005.56
2017-05-17T15:12:15.198Z,1005.63
2017-05-17T15:13:13.688Z,1005.49
2017-05-17T15:14:11.065Z,1005.67
2017-05-17T15:15:08.463Z,1005.53
2017-05-17T15:16:05.904Z,1005.59
2017-05-17T15:17:03.319Z,1005.48
2017-05-17T15:18:00.683Z,1005.55
2017-05-17T15:18:58.113Z,1005.41
2017-05-17T15:19:56.090Z,1005.46
2017-05-17T15:20:53.573Z,1005.36
2017-05-17T15:21:51.101Z,1005.45
2017-05-17T15:22:48.487Z,1005.42
2017-05-17T15:23:45.942Z,1005.42
2017-05-17T15:24:43.427Z,1005.45
2017-05-17T15:25:40.882Z,1005.43
2017-05-17T15:26:38.372Z,1005.40
2017-05-17T15:27:35.829Z,1005.36
2017-05-17T15:28:33.442Z,1005.33
2017-05-17T15:29:30.839Z,1005.32
2017-05-17T15:30:28.272Z,1005.35
2017-05-17T15:31:25.702Z,1005.30
2017-05-17T15:32:23.118Z,1005.30
2017-05-17T15:33:20.523Z,1005.27
2017-05-17T15:34:17.921Z,1005.30
2017-05-17T15:35:15.310Z,1005.30
2017-05-17T15:36:12.696Z,1005.36
2017-05-17T15:37:10.104Z,1005.28
2017-05-17T15:38:07.497Z,1005.24
2017-05-17T15:39:04.927Z,1005.28
2017-05-17T15:40:02.302Z,1005.25
2017-05-17T15:41:01.258Z,1005.26
2017-05-17T15:41:58.637Z,1005.25
2017-05-17T15:42:55.990Z,1005.24
2017-05-17T15:43:53.341Z,1005.15
2017-05-17T15:44:50.801Z,1005.17
2017-05-17T15:45:48.133Z,1005.16
2017-05-17T15:46:45.571Z,1005.08
2017-05-17T15:47:42.902Z,1005.07
2017-05-17T15:48:40.269Z,1005.14
2017-05-17T15:49:37.643Z,1005.14
2017-05-17T15:50:35.019Z,1005.12
2017-05-17T15:51:32.417Z,1005.10
2017-05-17T15:52:29.794Z,1005.09
2017-05-17T15:53:27.220Z,1005.08
2017-05-17T15:54:24.585Z,1005.06
2017-05-17T15:55:21.975Z,1005.00
2017-05-17T15:56:19.394Z,1005.04
2017-05-17T15:57:16.777Z,1005.00
2017-05-17T15:58:14.291Z,1004.94
2017-05-17T15:59:11.682Z,1005.01
2017-05-17T16:00:09.115Z,1004.88
2017-05-17T16:01:06.586Z,1004.97
2017-05-17T16:02:03.968Z,1004.97
2017-05-17T16:03:01.350Z,1004.86
2017-05-17T16:03:58.715Z,1004.86
2017-05-17T16:04:56.151Z,1004.84
2017-05-17T16:05:53.533Z,1004.82
2017-05-17T16:06:50.962Z,1004.74
2017-05-17T16:07:48.355Z,1004.84
2017-05-17T16:08:45.725Z,1004.76
2017-05-17T16:09:43.103Z,1004.76
2017-05-17T16:10:40.477Z,1004.70
2017-05-17T16:11:37.840Z,1004.71
2017-05-17T16:12:35.361Z,1004.72
2017-05-17T16:13:32.795Z,1004.69
2017-05-17T16:14:30.174Z,1004.70
2017-05-17T16:15:27.550Z,1004.71
2017-05-17T16:16:24.925Z,1004.62
2017-05-17T16:17:22.290Z,1004.65
2017-05-17T16:18:19.677Z,1004.62
2017-05-17T16:19:17.068Z,1004.54
2017-05-17T16:20:14.514Z,1004.59
2017-05-17T16:21:11.946Z,1004.63
2017-05-17T16:22:09.369Z,1004.61
2017-05-17T16:23:06.738Z,1004.60
2017-05-17T16:24:04.129Z,1004.57
2017-05-17T16:25:01.661Z,1004.53
2017-05-17T16:25:59.051Z,1004.56
2017-05-17T16:26:56.439Z,1004.53
2017-05-17T16:27:53.846Z,1004.55
2017-05-17T16:28:51.212Z,1004.52
2017-05-17T16:29:48.593Z,1004.54
2017-05-17T16:30:46.028Z,1004.47
2017-05-17T16:31:43.459Z,1004.53
2017-05-17T16:32:40.845Z,1004.48
2017-05-17T16:33:38.521Z,1004.42
2017-05-17T16:34:35.906Z,1004.41
2017-05-17T16:35:33.305Z,1004.46
2017-05-17T16:36:30.762Z,1004.42
2017-05-17T16:37:28.111Z,1004.45
2017-05-17T16:38:25.508Z,1004.45
2017-05-17T16:39:22.894Z,1004.40
2017-05-17T16:40:20.271Z,1004.39
2017-05-17T16:41:17.666Z,1004.34
2017-05-17T16:42:15.050Z,1004.41
2017-05-17T16:43:12.464Z,1004.37
2017-05-17T16:44:09.906Z,1004.37
2017-05-17T16:45:07.349Z,1004.36
2017-05-17T16:46:04.759Z,1004.34
2017-05-17T16:47:02.116Z,1004.32
2017-05-17T16:47:59.573Z,1004.36
2017-05-17T16:48:56.970Z,1004.30
2017-05-17T16:49:54.465Z,1004.29
2017-05-17T16:50:51.863Z,1004.34
2017-05-17T16:51:49.290Z,1004.27
2017-05-17T16:52:46.638Z,1004.22
2017-05-17T16:53:44.023Z,1004.33
2017-05-17T16:54:41.408Z,1004.21
2017-05-17T16:55:38.792Z,1004.17
2017-05-17T16:56:36.259Z,1004.17
2017-05-17T16:57:33.650Z,1004.25
2017-05-17T16:58:31.094Z,1004.22
2017-05-17T16:59:28.491Z,1004.17
2017-05-17T17:00:25.904Z,1004.20
2017-05-17T17:01:23.275Z,1004.14
2017-05-17T17:02:20.664Z,1004.07
2017-05-17T17:03:18.050Z,1004.12
2017-05-17T17:04:15.868Z,1004.13
2017-05-17T17:05:13.425Z,1004.12
2017-05-17T17:06:10.799Z,1004.11
2017-05-17T17:07:08.196Z,1004.15
2017-05-17T17:08:12.590Z,1004.05
2017-05-17T17:09:09.938Z,1004.13
2017-05-17T17:10:07.315Z,1004.13
2017-05-17T17:11:04.703Z,1004.00
2017-05-17T17:12:02.083Z,1004.03
2017-05-17T17:12:59.463Z,1004.02
2017-05-17T17:13:56.858Z,1004.05
2017-05-17T17:14:54.252Z,1003.96
2017-05-17T17:15:51.774Z,1004.02
2017-05-17T17:16:49.195Z,1004.00
2017-05-17T17:17:46.584Z,1004.07
2017-05-17T17:18:43.990Z,1004.00
2017-05-17T17:19:41.351Z,1004.02
2017-05-17T17:20:38.774Z,1003.95
2017-05-17T17:21:36.189Z,1004.00
2017-05-17T17:22:33.721Z,1003.97
2017-05-17T17:23:31.105Z,1004.01
2017-05-17T17:24:28.531Z,1004.04
2017-05-17T17:25:25.924Z,1003.92
2017-05-17T17:26:23.307Z,1003.90
2017-05-17T17:27:21.301Z,1003.96
2017-05-17T17:28:18.710Z,1003.97
2017-05-17T17:29:16.977Z,1003.97
2017-05-17T17:30:14.386Z,1003.93
2017-05-17T17:31:11.798Z,1003.91
2017-05-17T17:32:09.295Z,1003.88
2017-05-17T17:33:06.691Z,1003.88
2017-05-17T17:34:04.083Z,1003.84
2017-05-17T17:35:01.439Z,1003.90
2017-05-17T17:35:58.864Z,1003.78
2017-05-17T17:36:56.240Z,1003.86
2017-05-17T17:37:53.624Z,1003.80
2017-05-17T17:38:50.996Z,1003.85
2017-05-17T17:39:48.508Z,1003.84
2017-05-17T17:40:45.920Z,1003.84
2017-05-17T17:41:43.348Z,1003.85
2017-05-17T17:42:40.742Z,1003.85
2017-05-17T17:43:38.107Z,1003.82
2017-05-17T17:44:35.501Z,1003.81
2017-05-17T17:45:33.055Z,1003.77
2017-05-17T17:46:30.721Z,1003.79
2017-05-17T17:47:28.088Z,1003.82
2017-05-17T17:48:25.474Z,1003.79
2017-05-17T17:49:22.844Z,1003.72
2017-05-17T17:50:20.196Z,1003.75
2017-05-17T17:51:17.584Z,1003.69
2017-05-17T17:52:14.951Z,1003.74
2017-05-17T17:53:12.323Z,1003.67
2017-05-17T17:54:09.712Z,1003.69
2017-05-17T17:55:07.079Z,1003.63
2017-05-17T17:56:04.459Z,1003.65
2017-05-17T17:57:01.848Z,1003.57
2017-05-17T17:57:59.242Z,1003.68
2017-05-17T17:58:56.629Z,1003.69
2017-05-17T17:59:54.002Z,1003.65
2017-05-17T18:00:51.409Z,1003.73
2017-05-17T18:01:48.795Z,1003.63
2017-05-17T18:02:46.261Z,1003.65
2017-05-17T18:03:43.637Z,1003.63
2017-05-17T18:04:41.027Z,1003.60
2017-05-17T18:05:38.428Z,1003.69
2017-05-17T18:06:35.817Z,1003.61
2017-05-17T18:07:33.210Z,1003.59
2017-05-17T18:08:30.610Z,1003.64
2017-05-17T18:09:28.073Z,1003.62
2017-05-17T18:10:25.456Z,1003.52
2017-05-17T18:11:22.868Z,1003.64
2017-05-17T18:12:20.234Z,1003.61
2017-05-17T18:13:17.600Z,1003.52
2017-05-17T18:14:14.983Z,1003.64
2017-05-17T18:15:12.376Z,1003.58
2017-05-17T18:16:09.760Z,1003.58
2017-05-17T18:17:07.127Z,1003.62
2017-05-17T18:18:04.481Z,1003.55
2017-05-17T18:19:01.901Z,1003.56
2017-05-17T18:19:59.275Z,1003.53
2017-05-17T18:20:56.650Z,1003.53
2017-05-17T18:21:54.024Z,1003.58
2017-05-17T18:22:51.415Z,1003.51
2017-05-17T18:23:48.794Z,1003.46
2017-05-17T18:24:47.883Z,1003.48
2017-05-17T18:25:45.307Z,1003.47
2017-05-17T18:26:42.691Z,1003.41
2017-05-17T18:27:40.093Z,1003.40
2017-05-17T18:28:37.447Z,1003.44
2017-05-17T18:29:34.859Z,1003.40
2017-05-17T18:30:32.252Z,1003.44
2017-05-17T18:31:30.679Z,1003.43
2017-05-17T18:32:28.085Z,1003.45
2017-05-17T18:33:25.517Z,1003.41
2017-05-17T18:34:22.924Z,1003.42
2017-05-17T18:35:20.309Z,1003.37
2017-05-17T18:36:17.731Z,1003.38
2017-05-17T18:37:15.152Z,1003.39
2017-05-17T18:38:12.510Z,1003.37
2017-05-17T18:39:09.893Z,1003.40
2017-05-17T18:40:07.266Z,1003.38
2017-05-17T18:41:04.638Z,1003.39
2017-05-17T18:42:02.410Z,1003.39
2017-05-17T18:42:59.876Z,1003.42
2017-05-17T18:43:57.268Z,1003.34
2017-05-17T18:44:54.647Z,1003.30
2017-05-17T18:45:52.008Z,1003.30
2017-05-17T18:46:49.393Z,1003.35
2017-05-17T18:47:46.767Z,1003.34
2017-05-17T18:48:44.158Z,1003.33
2017-05-17T18:49:41.527Z,1003.37
2017-05-17T18:50:38.890Z,1003.30
2017-05-17T18:51:36.259Z,1003.38
2017-05-17T18:52:34.214Z,1003.31
2017-05-17T18:53:31.648Z,1003.38
2017-05-17T18:54:29.041Z,1003.34
2017-05-17T18:55:26.414Z,1003.35
2017-05-17T18:56:23.767Z,1003.37
2017-05-17T18:57:21.164Z,1003.39
2017-05-17T18:58:18.548Z,1003.35
2017-05-17T18:59:15.963Z,1003.29
2017-05-17T19:00:13.353Z,1003.32
2017-05-17T19:01:10.768Z,1003.37
2017-05-17T19:02:08.146Z,1003.35
2017-05-17T19:03:05.552Z,1003.37
2017-05-17T19:04:02.920Z,1003.32
2017-05-17T19:05:00.280Z,1003.39
2017-05-17T19:05:57.679Z,1003.32
2017-05-17T19:06:55.072Z,1003.32
2017-05-17T19:07:52.445Z,1003.28
2017-05-17T19:08:50.030Z,1003.25
2017-05-17T19:09:47.405Z,1003.29
2017-05-17T19:10:44.818Z,1003.30
2017-05-17T19:11:42.558Z,1003.27
2017-05-17T19:12:40.087Z,1003.28
2017-05-17T19:13:37.518Z,1003.25
2017-05-17T19:14:34.894Z,1003.26
2017-05-17T19:15:32.308Z,1003.29
2017-05-17T19:16:29.684Z,1003.30
2017-05-17T19:17:27.231Z,1003.39
2017-05-17T19:18:24.684Z,1003.31
2017-05-17T19:19:22.074Z,1003.37
2017-05-17T19:20:19.470Z,1003.24
2017-05-17T19:21:16.844Z,1003.36
2017-05-17T19:22:14.214Z,1003.34
2017-05-17T19:23:11.592Z,1003.34
2017-05-17T19:24:08.986Z,1003.29
2017-05-17T19:25:06.344Z,1003.31
2017-05-17T19:26:03.675Z,1003.33
2017-05-17T19:27:01.054Z,1003.22
2017-05-17T19:27:58.431Z,1003.36
2017-05-17T19:28:56.004Z,1003.28
2017-05-17T19:29:53.361Z,1003.19
2017-05-17T19:30:50.817Z,1003.29
